Time,TemperatureF,DewpointF,PressureIn,WindDirection,WindDirectionDegrees,WindSpeedMPH,WindSpeedGustMPH,Humidity,HourlyPrecipIn,Conditions,Clouds,dailyrainin,SoftwareType,DateUTC
2013-05-11 00:01:00,63.4,59.0,29.90,SW,228,0.0,0.0,86,0.00,,,0.00,weatherlink.com 1.10,2013-05-11 04:01:00,
2013-05-11 00:16:00,63.7,60.0,29.90,SW,228,0.0,0.0,86,0.00,,,0.00,weatherlink.com 1.10,2013-05-11 04:16:00,
2013-05-11 00:31:00,64.6,61.0,29.90,NW,326,0.0,6.0,88,0.05,,,0.05,weatherlink.com 1.10,2013-05-11 04:31:00,
2013-05-11 00:46:00,64.0,61.0,29.90,NNW,340,0.0,4.0,91,0.14,,,0.14,weatherlink.com 1.10,2013-05-11 04:46:00,
2013-05-11 01:01:00,63.6,62.0,29.89,WSW,257,0.0,0.0,93,0.19,,,0.19,weatherlink.com 1.10,2013-05-11 05:01:00,
2013-05-11 01:16:00,63.3,62.0,29.88,NNE,33,0.0,1.0,94,0.28,,,0.28,weatherlink.com 1.10,2013-05-11 05:16:00,
2013-05-11 01:31:00,63.2,62.0,29.88,WNW,283,0.0,2.0,95,0.24,,,0.29,weatherlink.com 1.10,2013-05-11 05:31:00,
2013-05-11 01:47:00,63.1,62.0,29.88,West,266,0.0,1.0,95,0.16,,,0.30,weatherlink.com 1.10,2013-05-11 05:47:00,
2013-05-11 02:02:00,62.9,62.0,29.85,West,266,0.0,0.0,95,0.14,,,0.33,weatherlink.com 1.10,2013-05-11 06:02:00,
2013-05-11 02:17:00,62.8,62.0,29.86,West,274,0.0,1.0,96,0.06,,,0.34,weatherlink.com 1.10,2013-05-11 06:17:00,
2013-05-11 02:32:00,62.8,62.0,29.87,WSW,257,0.0,0.0,96,0.05,,,0.34,weatherlink.com 1.10,2013-05-11 06:32:00,
2013-05-11 02:47:00,62.8,62.0,29.86,WNW,285,0.0,1.0,96,0.06,,,0.36,weatherlink.com 1.10,2013-05-11 06:47:00,
2013-05-11 03:02:00,62.8,62.0,29.86,WSW,243,0.0,1.0,97,0.06,,,0.39,weatherlink.com 1.10,2013-05-11 07:02:00,
2013-05-11 03:17:00,62.6,62.0,29.83,SE,133,0.0,1.0,97,0.06,,,0.40,weatherlink.com 1.10,2013-05-11 07:17:00,
2013-05-11 03:32:00,62.3,62.0,29.83,SSE,163,0.0,1.0,97,0.06,,,0.40,weatherlink.com 1.10,2013-05-11 07:32:00,
2013-05-11 03:47:00,62.3,62.0,29.84,WSW,245,0.0,1.0,97,0.04,,,0.40,weatherlink.com 1.10,2013-05-11 07:47:00,
2013-05-11 04:02:00,62.2,61.0,29.84,West,262,0.0,1.0,97,0.01,,,0.40,weatherlink.com 1.10,2013-05-11 08:02:00,
2013-05-11 04:17:00,62.1,61.0,29.84,SSW,211,0.0,1.0,97,0.00,,,0.40,weatherlink.com 1.10,2013-05-11 08:17:00,
2013-05-11 04:32:00,62.1,61.0,29.84,West,264,1.0,1.0,97,0.00,,,0.40,weatherlink.com 1.10,2013-05-11 08:32:00,
2013-05-11 04:47:00,62.0,61.0,29.84,West,262,0.0,0.0,97,0.00,,,0.40,weatherlink.com 1.10,2013-05-11 08:47:00,
2013-05-11 05:02:00,61.8,61.0,29.83,SSW,210,0.0,0.0,97,0.00,,,0.40,weatherlink.com 1.10,2013-05-11 09:02:00,
2013-05-11 05:17:00,61.7,61.0,29.82,SSW,210,0.0,0.0,97,0.00,,,0.40,weatherlink.com 1.10,2013-05-11 09:17:00,
2013-05-11 05:32:00,61.6,61.0,29.82,SSW,210,0.0,0.0,97,0.00,,,0.40,weatherlink.com 1.10,2013-05-11 09:32:00,
2013-05-11 05:47:00,61.5,61.0,29.81,SSW,211,0.0,0.0,97,0.00,,,0.40,weatherlink.com 1.10,2013-05-11 09:47:00,
2013-05-11 06:02:00,61.6,61.0,29.81,SSW,211,0.0,0.0,97,0.00,,,0.40,weatherlink.com 1.10,2013-05-11 10:02:00,
2013-05-11 06:17:00,61.6,61.0,29.81,SSW,210,0.0,0.0,97,0.00,,,0.40,weatherlink.com 1.10,2013-05-11 10:17:00,
2013-05-11 06:32:00,61.6,61.0,29.81,SSW,210,0.0,0.0,97,0.01,,,0.41,weatherlink.com 1.10,2013-05-11 10:32:00,
2013-05-11 06:47:00,61.7,61.0,29.81,SSW,210,0.0,0.0,98,0.01,,,0.41,weatherlink.com 1.10,2013-05-11 10:47:00,
2013-05-11 07:02:00,61.8,61.0,29.81,SSW,210,0.0,0.0,98,0.01,,,0.41,weatherlink.com 1.10,2013-05-11 11:02:00,
2013-05-11 07:17:00,62.1,62.0,29.81,SSW,211,0.0,0.0,98,0.01,,,0.41,weatherlink.com 1.10,2013-05-11 11:17:00,
2013-05-11 07:32:00,62.4,62.0,29.81,WSW,245,0.0,0.0,98,0.00,,,0.41,weatherlink.com 1.10,2013-05-11 11:32:00,
2013-05-11 07:47:00,62.5,62.0,29.83,WSW,255,0.0,0.0,97,0.00,,,0.41,weatherlink.com 1.10,2013-05-11 11:47:00,
2013-05-11 08:02:00,62.6,62.0,29.82,NW,308,0.0,2.0,97,0.00,,,0.41,weatherlink.com 1.10,2013-05-11 12:02:00,
2013-05-11 08:17:00,62.6,62.0,29.82,WSW,255,0.0,0.0,97,0.00,,,0.41,weatherlink.com 1.10,2013-05-11 12:17:00,
2013-05-11 08:32:00,62.7,62.0,29.82,WSW,239,0.0,0.0,97,0.00,,,0.41,weatherlink.com 1.10,2013-05-11 12:32:00,
2013-05-11 08:47:00,63.2,62.0,29.82,WSW,257,0.0,1.0,97,0.00,,,0.41,weatherlink.com 1.10,2013-05-11 12:47:00,
2013-05-11 09:02:00,63.8,63.0,29.81,NE,34,0.0,2.0,97,0.00,,,0.41,weatherlink.com 1.10,2013-05-11 13:02:00,
2013-05-11 09:17:00,64.5,63.0,29.80,West,267,0.0,3.0,96,0.00,,,0.41,weatherlink.com 1.10,2013-05-11 13:17:00,
2013-05-11 09:32:00,65.1,63.0,29.80,South,173,0.0,4.0,94,0.00,,,0.41,weatherlink.com 1.10,2013-05-11 13:32:00,
2013-05-11 09:47:00,65.5,64.0,29.80,SSW,208,0.0,3.0,94,0.00,,,0.41,weatherlink.com 1.10,2013-05-11 13:47:00,
2013-05-11 10:02:00,65.8,64.0,29.80,East,79,0.0,1.0,93,0.00,,,0.41,weatherlink.com 1.10,2013-05-11 14:02:00,
2013-05-11 10:17:00,65.5,63.0,29.80,South,191,1.0,5.0,92,0.00,,,0.41,weatherlink.com 1.10,2013-05-11 14:17:00,
2013-05-11 10:32:00,65.5,64.0,29.79,SSW,193,1.0,1.0,93,0.00,,,0.41,weatherlink.com 1.10,2013-05-11 14:32:00,
2013-05-11 10:47:00,65.7,63.0,29.78,SW,229,0.0,2.0,92,0.00,,,0.41,weatherlink.com 1.10,2013-05-11 14:47:00,
2013-05-11 11:02:00,66.0,64.0,29.78,SW,216,0.0,3.0,92,0.00,,,0.41,weatherlink.com 1.10,2013-05-11 15:02:00,
2013-05-11 11:17:00,66.5,64.0,29.79,SSW,198,1.0,2.0,91,0.00,,,0.41,weatherlink.com 1.10,2013-05-11 15:17:00,
2013-05-11 11:32:00,66.6,64.0,29.79,SW,222,0.0,3.0,90,0.00,,,0.41,weatherlink.com 1.10,2013-05-11 15:32:00,
2013-05-11 11:47:00,66.5,64.0,29.79,NNW,333,0.0,1.0,90,0.00,,,0.41,weatherlink.com 1.10,2013-05-11 15:47:00,
2013-05-11 12:02:00,66.5,64.0,29.79,West,274,2.0,2.0,90,0.00,,,0.41,weatherlink.com 1.10,2013-05-11 16:02:00,
2013-05-11 12:17:00,66.9,64.0,29.78,SE,136,0.0,2.0,90,0.00,,,0.41,weatherlink.com 1.10,2013-05-11 16:17:00,
2013-05-11 12:33:00,67.5,65.0,29.78,SW,229,0.0,2.0,90,0.00,,,0.41,weatherlink.com 1.10,2013-05-11 16:33:00,
2013-05-11 12:48:00,67.5,64.0,29.77,WNW,291,0.0,3.0,89,0.00,,,0.41,weatherlink.com 1.10,2013-05-11 16:48:00,
2013-05-11 13:03:00,67.8,65.0,29.77,SSW,210,0.0,2.0,89,0.00,,,0.41,weatherlink.com 1.10,2013-05-11 17:03:00,
2013-05-11 13:18:00,68.0,65.0,29.76,NNW,336,0.0,3.0,89,0.00,,,0.41,weatherlink.com 1.10,2013-05-11 17:18:00,
2013-05-11 13:33:00,68.4,65.0,29.74,West,266,1.0,2.0,89,0.00,,,0.41,weatherlink.com 1.10,2013-05-11 17:33:00,
2013-05-11 13:48:00,69.2,65.0,29.74,SSW,208,0.0,4.0,86,0.00,,,0.41,weatherlink.com 1.10,2013-05-11 17:48:00,
2013-05-11 14:03:00,69.7,65.0,29.74,SSW,207,1.0,5.0,85,0.00,,,0.41,weatherlink.com 1.10,2013-05-11 18:03:00,
2013-05-11 14:18:00,70.0,65.0,29.73,West,269,1.0,2.0,85,0.00,,,0.41,weatherlink.com 1.10,2013-05-11 18:18:00,
2013-05-11 14:33:00,70.7,65.0,29.72,East,79,0.0,5.0,82,0.00,,,0.41,weatherlink.com 1.10,2013-05-11 18:33:00,
2013-05-11 14:48:00,71.9,66.0,29.71,WSW,238,1.0,4.0,81,0.00,,,0.41,weatherlink.com 1.10,2013-05-11 18:48:00,
2013-05-11 15:03:00,71.8,65.0,29.71,SW,233,0.0,2.0,80,0.00,,,0.41,weatherlink.com 1.10,2013-05-11 19:03:00,
2013-05-11 15:18:00,71.3,65.0,29.70,South,187,0.0,2.0,80,0.00,,,0.41,weatherlink.com 1.10,2013-05-11 19:18:00,
2013-05-11 15:33:00,69.4,63.0,29.75,WNW,285,3.0,11.0,79,0.13,,,0.54,weatherlink.com 1.10,2013-05-11 19:33:00,
2013-05-11 15:48:00,61.4,59.0,29.73,West,260,2.0,5.0,91,0.38,,,0.79,weatherlink.com 1.10,2013-05-11 19:48:00,
2013-05-11 16:03:00,60.6,59.0,29.73,NNE,16,0.0,3.0,94,0.44,,,0.85,weatherlink.com 1.10,2013-05-11 20:03:00,
2013-05-11 16:18:00,60.8,60.0,29.73,WSW,246,0.0,1.0,96,0.44,,,0.85,weatherlink.com 1.10,2013-05-11 20:18:00,
2013-05-11 16:33:00,61.0,60.0,29.73,West,261,1.0,2.0,96,0.23,,,0.87,weatherlink.com 1.10,2013-05-11 20:33:00,
2013-05-11 16:48:00,62.0,61.0,29.73,West,278,0.0,1.0,96,0.09,,,0.88,weatherlink.com 1.10,2013-05-11 20:48:00,
2013-05-11 17:03:00,62.4,61.0,29.73,WSW,253,0.0,1.0,96,0.03,,,0.88,weatherlink.com 1.10,2013-05-11 21:03:00,
2013-05-11 17:18:00,63.0,62.0,29.72,WSW,253,0.0,1.0,97,0.03,,,0.88,weatherlink.com 1.10,2013-05-11 21:18:00,
2013-05-11 17:33:00,63.7,63.0,29.71,WSW,253,0.0,0.0,97,0.01,,,0.88,weatherlink.com 1.10,2013-05-11 21:33:00,
2013-05-11 17:48:00,64.6,64.0,29.71,WSW,253,0.0,0.0,97,0.00,,,0.88,weatherlink.com 1.10,2013-05-11 21:48:00,
2013-05-11 18:03:00,64.8,64.0,29.73,WSW,253,0.0,0.0,96,0.00,,,0.88,weatherlink.com 1.10,2013-05-11 22:03:00,
2013-05-11 18:18:00,64.9,64.0,29.72,WSW,253,0.0,0.0,96,0.00,,,0.88,weatherlink.com 1.10,2013-05-11 22:18:00,
2013-05-11 18:33:00,64.7,64.0,29.72,WSW,253,0.0,0.0,96,0.00,,,0.88,weatherlink.com 1.10,2013-05-11 22:33:00,
2013-05-11 18:48:00,64.0,63.0,29.72,SW,228,0.0,0.0,96,0.00,,,0.88,weatherlink.com 1.10,2013-05-11 22:48:00,
2013-05-11 19:03:00,63.8,63.0,29.73,WNW,295,0.0,0.0,96,0.00,,,0.88,weatherlink.com 1.10,2013-05-11 23:03:00,
2013-05-11 19:18:00,63.3,62.0,29.73,WNW,295,0.0,0.0,96,0.00,,,0.88,weatherlink.com 1.10,2013-05-11 23:18:00,
2013-05-11 19:33:00,63.1,62.0,29.72,WNW,295,0.0,0.0,96,0.00,,,0.88,weatherlink.com 1.10,2013-05-11 23:33:00,
2013-05-11 19:48:00,62.8,62.0,29.73,WNW,295,0.0,0.0,96,0.00,,,0.88,weatherlink.com 1.10,2013-05-11 23:48:00,
2013-05-11 20:03:00,62.6,62.0,29.72,WNW,295,0.0,0.0,97,0.00,,,0.88,weatherlink.com 1.10,2013-05-12 00:03:00,
2013-05-11 20:18:00,62.5,62.0,29.72,WNW,295,0.0,0.0,97,0.00,,,0.88,weatherlink.com 1.10,2013-05-12 00:18:00,
2013-05-11 20:33:00,62.4,62.0,29.72,WNW,295,0.0,0.0,97,0.00,,,0.88,weatherlink.com 1.10,2013-05-12 00:33:00,
2013-05-11 20:48:00,62.4,62.0,29.72,WNW,295,0.0,0.0,97,0.00,,,0.88,weatherlink.com 1.10,2013-05-12 00:48:00,
2013-05-11 21:03:00,62.2,61.0,29.71,WNW,295,0.0,0.0,97,0.00,,,0.88,weatherlink.com 1.10,2013-05-12 01:03:00,
2013-05-11 21:18:00,62.1,61.0,29.72,WNW,295,0.0,0.0,97,0.00,,,0.88,weatherlink.com 1.10,2013-05-12 01:18:00,
2013-05-11 21:33:00,62.0,62.0,29.72,WNW,295,0.0,0.0,98,0.00,,,0.88,weatherlink.com 1.10,2013-05-12 01:33:00,
2013-05-11 21:48:00,62.0,62.0,29.73,WNW,295,0.0,0.0,98,0.00,,,0.88,weatherlink.com 1.10,2013-05-12 01:48:00,
2013-05-11 22:03:00,61.9,61.0,29.73,WNW,295,0.0,0.0,98,0.00,,,0.88,weatherlink.com 1.10,2013-05-12 02:03:00,
2013-05-11 22:18:00,61.5,61.0,29.73,WNW,295,0.0,0.0,98,0.00,,,0.88,weatherlink.com 1.10,2013-05-12 02:18:00,
2013-05-11 22:33:00,61.5,61.0,29.73,WNW,295,0.0,0.0,98,0.00,,,0.88,weatherlink.com 1.10,2013-05-12 02:33:00,
2013-05-11 22:48:00,61.3,61.0,29.72,WNW,295,0.0,0.0,98,0.00,,,0.88,weatherlink.com 1.10,2013-05-12 02:48:00,
2013-05-11 23:03:00,61.2,61.0,29.71,WNW,295,0.0,0.0,98,0.00,,,0.88,weatherlink.com 1.10,2013-05-12 03:03:00,
2013-05-11 23:18:00,60.8,60.0,29.72,WNW,295,0.0,0.0,98,0.00,,,0.88,weatherlink.com 1.10,2013-05-12 03:18:00,
2013-05-11 23:33:00,60.9,60.0,29.72,WNW,295,0.0,0.0,98,0.00,,,0.88,weatherlink.com 1.10,2013-05-12 03:33:00,
2013-05-11 23:48:00,60.9,60.0,29.72,WNW,291,0.0,0.0,98,0.00,,,0.88,weatherlink.com 1.10,2013-05-12 03:48:00,